sensor_id;sensor_type;location;lat;lon;timestamp;pressure;altitude;pressure_sealevel;temperature;humidity
6208;BME280;3137;51.550;7.060;2023-09-19T00:00:21;100441.81;;;16.32;78.87
6208;BME280;3137;51.550;7.060;2023-09-19T00:02:57;100454.03;;;16.28;78.82
6208;BME280;3137;51.550;7.060;2023-09-19T00:05:26;100447.75;;;16.21;78.19
6208;BME280;3137;51.550;7.060;2023-09-19T00:07:56;100452.50;;;16.19;78.10
6208;BME280;3137;51.550;7.060;2023-09-19T00:10:26;100462.50;;;16.25;78.13
6208;BME280;3137;51.550;7.060;2023-09-19T00:12:53;100466.38;;;16.16;77.86
6208;BME280;3137;51.550;7.060;2023-09-19T00:15:26;100464.88;;;16.13;77.65
6208;BME280;3137;51.550;7.060;2023-09-19T00:17:56;100473.56;;;16.09;77.09
6208;BME280;3137;51.550;7.060;2023-09-19T00:20:23;100481.00;;;16.07;76.74
6208;BME280;3137;51.550;7.060;2023-09-19T00:22:50;100473.56;;;16.09;76.59
6208;BME280;3137;51.550;7.060;2023-09-19T00:25:18;100481.00;;;16.07;75.97
6208;BME280;3137;51.550;7.060;2023-09-19T00:27:44;100481.59;;;16.02;76.47
6208;BME280;3137;51.550;7.060;2023-09-19T00:30:12;100481.16;;;15.98;76.18
6208;BME280;3137;51.550;7.060;2023-09-19T00:32:48;100488.22;;;15.99;76.48
6208;BME280;3137;51.550;7.060;2023-09-19T00:35:16;100481.50;;;15.95;76.47
6208;BME280;3137;51.550;7.060;2023-09-19T00:37:43;100483.75;;;15.92;76.24
6208;BME280;3137;51.550;7.060;2023-09-19T00:40:10;100484.41;;;15.94;75.98
6208;BME280;3137;51.550;7.060;2023-09-19T00:42:42;100486.00;;;15.88;76.47
6208;BME280;3137;51.550;7.060;2023-09-19T00:45:10;100490.19;;;15.91;76.14
6208;BME280;3137;51.550;7.060;2023-09-19T00:47:49;100491.78;;;15.85;76.44
6208;BME280;3137;51.550;7.060;2023-09-19T00:50:17;100484.91;;;15.83;76.78
6208;BME280;3137;51.550;7.060;2023-09-19T00:52:49;100487.41;;;15.84;76.79
6208;BME280;3137;51.550;7.060;2023-09-19T00:55:17;100497.63;;;15.89;76.64
6208;BME280;3137;51.550;7.060;2023-09-19T00:57:46;100501.88;;;15.77;77.44
6208;BME280;3137;51.550;7.060;2023-09-19T01:00:14;100506.59;;;15.75;77.78
6208;BME280;3137;51.550;7.060;2023-09-19T01:02:43;100506.41;;;15.76;77.65
6208;BME280;3137;51.550;7.060;2023-09-19T01:05:12;100517.19;;;15.76;77.67
6208;BME280;3137;51.550;7.060;2023-09-19T01:07:39;100516.34;;;15.76;78.01
6208;BME280;3137;51.550;7.060;2023-09-19T01:10:12;100515.72;;;15.74;78.07
6208;BME280;3137;51.550;7.060;2023-09-19T01:12:54;100517.59;;;15.73;78.19
6208;BME280;3137;51.550;7.060;2023-09-19T01:15:36;100528.94;;;15.69;78.45
6208;BME280;3137;51.550;7.060;2023-09-19T01:20:46;100530.97;;;15.67;78.49
6208;BME280;3137;51.550;7.060;2023-09-19T01:23:23;100527.75;;;15.57;78.66
6208;BME280;3137;51.550;7.060;2023-09-19T01:29:11;100536.00;;;15.55;78.94
6208;BME280;3137;51.550;7.060;2023-09-19T01:31:39;100533.03;;;15.50;79.03
6208;BME280;3137;51.550;7.060;2023-09-19T01:34:09;100544.94;;;15.56;78.82
6208;BME280;3137;51.550;7.060;2023-09-19T01:36:37;100542.31;;;15.47;78.90
6208;BME280;3137;51.550;7.060;2023-09-19T01:39:09;100538.13;;;15.45;78.96
6208;BME280;3137;51.550;7.060;2023-09-19T01:41:44;100549.38;;;15.48;78.94
6208;BME280;3137;51.550;7.060;2023-09-19T01:44:22;100555.13;;;15.45;79.17
6208;BME280;3137;51.550;7.060;2023-09-19T01:46:50;100552.53;;;15.37;78.98
6208;BME280;3137;51.550;7.060;2023-09-19T01:49:42;100555.91;;;15.39;79.12
6208;BME280;3137;51.550;7.060;2023-09-19T01:52:13;100555.06;;;15.39;79.02
6208;BME280;3137;51.550;7.060;2023-09-19T01:54:55;100552.53;;;15.37;78.98
6208;BME280;3137;51.550;7.060;2023-09-19T01:57:34;100555.44;;;15.36;78.60
6208;BME280;3137;51.550;7.060;2023-09-19T02:00:06;100553.75;;;15.35;78.32
6208;BME280;3137;51.550;7.060;2023-09-19T02:02:42;100551.25;;;15.33;78.06
6208;BME280;3137;51.550;7.060;2023-09-19T02:05:11;100555.59;;;15.34;78.22
6208;BME280;3137;51.550;7.060;2023-09-19T02:07:38;100563.50;;;15.36;77.02
6208;BME280;3137;51.550;7.060;2023-09-19T02:10:07;100557.84;;;15.31;77.41
6208;BME280;3137;51.550;7.060;2023-09-19T02:12:33;100565.47;;;15.27;76.51
6208;BME280;3137;51.550;7.060;2023-09-19T02:15:03;100563.34;;;15.23;77.10
6208;BME280;3137;51.550;7.060;2023-09-19T02:17:29;100573.59;;;15.19;76.66
6208;BME280;3137;51.550;7.060;2023-09-19T02:19:57;100562.38;;;15.16;76.03
6208;BME280;3137;51.550;7.060;2023-09-19T02:22:25;100577.34;;;15.18;76.67
6208;BME280;3137;51.550;7.060;2023-09-19T02:24:52;100569.63;;;15.15;76.44
6208;BME280;3137;51.550;7.060;2023-09-19T02:27:20;100585.78;;;15.15;75.63
6208;BME280;3137;51.550;7.060;2023-09-19T02:29:46;100585.50;;;15.10;75.67
6208;BME280;3137;51.550;7.060;2023-09-19T02:32:13;100594.59;;;15.09;75.92
6208;BME280;3137;51.550;7.060;2023-09-19T02:34:39;100589.59;;;15.06;75.92
6208;BME280;3137;51.550;7.060;2023-09-19T02:37:06;100601.47;;;15.12;75.00
6208;BME280;3137;51.550;7.060;2023-09-19T02:39:32;100586.53;;;15.09;74.87
6208;BME280;3137;51.550;7.060;2023-09-19T02:41:59;100588.56;;;15.07;74.69
6208;BME280;3137;51.550;7.060;2023-09-19T02:44:25;100603.31;;;15.11;74.39
6208;BME280;3137;51.550;7.060;2023-09-19T02:46:52;100599.31;;;15.07;74.92
6208;BME280;3137;51.550;7.060;2023-09-19T02:49:18;100599.69;;;15.04;74.93
6208;BME280;3137;51.550;7.060;2023-09-19T02:51:45;100610.09;;;15.07;75.31
6208;BME280;3137;51.550;7.060;2023-09-19T02:54:15;100615.13;;;15.10;74.80
6208;BME280;3137;51.550;7.060;2023-09-19T02:56:42;100605.75;;;15.06;75.27
6208;BME280;3137;51.550;7.060;2023-09-19T02:59:08;100612.78;;;15.07;75.05
6208;BME280;3137;51.550;7.060;2023-09-19T03:01:37;100611.56;;;14.95;75.62
6208;BME280;3137;51.550;7.060;2023-09-19T03:04:05;100613.00;;;15.05;75.37
6208;BME280;3137;51.550;7.060;2023-09-19T03:06:32;100616.41;;;14.99;75.19
6208;BME280;3137;51.550;7.060;2023-09-19T03:08:59;100617.25;;;15.00;75.27
6208;BME280;3137;51.550;7.060;2023-09-19T03:11:26;100627.16;;;14.99;75.43
6208;BME280;3137;51.550;7.060;2023-09-19T03:13:56;100627.91;;;14.93;75.36
6208;BME280;3137;51.550;7.060;2023-09-19T03:16:22;100620.47;;;14.95;75.91
6208;BME280;3137;51.550;7.060;2023-09-19T03:18:52;100615.94;;;14.96;75.37
6208;BME280;3137;51.550;7.060;2023-09-19T03:21:18;100616.09;;;14.94;75.08
6208;BME280;3137;51.550;7.060;2023-09-19T03:23:45;100612.56;;;14.94;75.45
6208;BME280;3137;51.550;7.060;2023-09-19T03:26:13;100623.25;;;14.87;75.56
6208;BME280;3137;51.550;7.060;2023-09-19T03:28:40;100616.00;;;14.88;75.24
6208;BME280;3137;51.550;7.060;2023-09-19T03:31:07;100617.69;;;14.89;75.06
6208;BME280;3137;51.550;7.060;2023-09-19T03:33:35;100624.16;;;14.80;74.68
6208;BME280;3137;51.550;7.060;2023-09-19T03:36:02;100628.34;;;14.82;75.02
6208;BME280;3137;51.550;7.060;2023-09-19T03:38:33;100630.56;;;14.79;74.86
6208;BME280;3137;51.550;7.060;2023-09-19T03:41:01;100626.84;;;14.80;74.79
6208;BME280;3137;51.550;7.060;2023-09-19T03:43:28;100633.78;;;14.74;74.62
6208;BME280;3137;51.550;7.060;2023-09-19T03:45:54;100636.09;;;14.77;74.92
6208;BME280;3137;51.550;7.060;2023-09-19T03:48:22;100631.25;;;14.73;74.35
6208;BME280;3137;51.550;7.060;2023-09-19T03:50:50;100632.78;;;14.75;74.27
6208;BME280;3137;51.550;7.060;2023-09-19T03:53:17;100635.47;;;14.75;73.91
6208;BME280;3137;51.550;7.060;2023-09-19T03:55:45;100629.94;;;14.69;74.41
6208;BME280;3137;51.550;7.060;2023-09-19T03:58:12;100629.16;;;14.68;73.99
6208;BME280;3137;51.550;7.060;2023-09-19T04:00:39;100632.47;;;14.70;74.19
6208;BME280;3137;51.550;7.060;2023-09-19T04:03:06;100626.94;;;14.72;73.92
6208;BME280;3137;51.550;7.060;2023-09-19T04:05:33;100633.16;;;14.72;74.00
6208;BME280;3137;51.550;7.060;2023-09-19T04:08:00;100625.06;;;14.72;73.96
6208;BME280;3137;51.550;7.060;2023-09-19T04:10:26;100625.88;;;14.73;73.88
6208;BME280;3137;51.550;7.060;2023-09-19T04:12:54;100627.94;;;14.71;74.05
6208;BME280;3137;51.550;7.060;2023-09-19T04:15:23;100625.88;;;14.73;74.08
6208;BME280;3137;51.550;7.060;2023-09-19T04:17:52;100626.09;;;14.71;74.47
6208;BME280;3137;51.550;7.060;2023-09-19T04:20:19;100629.41;;;14.73;74.66
6208;BME280;3137;51.550;7.060;2023-09-19T04:22:46;100633.00;;;14.66;74.95
6208;BME280;3137;51.550;7.060;2023-09-19T04:25:13;100622.84;;;14.53;75.89
6208;BME280;3137;51.550;7.060;2023-09-19T04:27:39;100621.47;;;14.57;75.72
6208;BME280;3137;51.550;7.060;2023-09-19T04:30:08;100627.69;;;14.57;75.79
6208;BME280;3137;51.550;7.060;2023-09-19T04:32:38;100634.88;;;14.65;75.83
6208;BME280;3137;51.550;7.060;2023-09-19T04:35:09;100638.94;;;14.61;75.72
6208;BME280;3137;51.550;7.060;2023-09-19T04:37:40;100631.53;;;14.63;75.81
6208;BME280;3137;51.550;7.060;2023-09-19T04:40:08;100624.94;;;14.66;75.70
6208;BME280;3137;51.550;7.060;2023-09-19T04:42:53;100634.22;;;14.63;75.69
6208;BME280;3137;51.550;7.060;2023-09-19T04:45:23;100633.75;;;14.59;76.05
6208;BME280;3137;51.550;7.060;2023-09-19T04:47:49;100631.41;;;14.56;76.26
6208;BME280;3137;51.550;7.060;2023-09-19T04:50:16;100634.28;;;14.55;76.40
6208;BME280;3137;51.550;7.060;2023-09-19T04:52:43;100624.84;;;14.59;75.97
6208;BME280;3137;51.550;7.060;2023-09-19T04:55:14;100630.38;;;14.57;76.65
6208;BME280;3137;51.550;7.060;2023-09-19T04:57:48;100644.09;;;14.71;76.09
6208;BME280;3137;51.550;7.060;2023-09-19T05:00:19;100644.63;;;14.66;76.18
6208;BME280;3137;51.550;7.060;2023-09-19T05:02:55;100653.41;;;14.60;76.57
6208;BME280;3137;51.550;7.060;2023-09-19T05:05:23;100652.84;;;14.64;76.34
6208;BME280;3137;51.550;7.060;2023-09-19T05:07:52;100665.53;;;14.56;76.77
6208;BME280;3137;51.550;7.060;2023-09-19T05:10:20;100663.34;;;14.59;76.78
6208;BME280;3137;51.550;7.060;2023-09-19T05:12:48;100665.72;;;14.54;77.12
6208;BME280;3137;51.550;7.060;2023-09-19T05:15:17;100677.03;;;14.50;77.79
6208;BME280;3137;51.550;7.060;2023-09-19T05:17:51;100677.34;;;14.55;77.59
6208;BME280;3137;51.550;7.060;2023-09-19T05:20:24;100676.13;;;14.57;77.21
6208;BME280;3137;51.550;7.060;2023-09-19T05:23:03;100688.09;;;14.55;77.66
6208;BME280;3137;51.550;7.060;2023-09-19T05:25:32;100690.53;;;14.64;77.47
6208;BME280;3137;51.550;7.060;2023-09-19T05:27:59;100697.97;;;14.62;77.66
6208;BME280;3137;51.550;7.060;2023-09-19T05:30:26;100701.19;;;14.58;77.97
6208;BME280;3137;51.550;7.060;2023-09-19T05:32:56;100702.34;;;14.63;77.58
6208;BME280;3137;51.550;7.060;2023-09-19T05:35:24;100710.75;;;14.60;77.91
6208;BME280;3137;51.550;7.060;2023-09-19T05:37:51;100711.78;;;14.59;77.60
6208;BME280;3137;51.550;7.060;2023-09-19T05:40:18;100719.19;;;14.57;77.67
6208;BME280;3137;51.550;7.060;2023-09-19T05:42:46;100717.28;;;14.66;77.70
6208;BME280;3137;51.550;7.060;2023-09-19T05:45:13;100717.81;;;14.61;77.56
6208;BME280;3137;51.550;7.060;2023-09-19T05:47:40;100721.81;;;14.66;77.28
6208;BME280;3137;51.550;7.060;2023-09-19T05:50:11;100716.91;;;14.69;77.09
6208;BME280;3137;51.550;7.060;2023-09-19T05:52:38;100730.38;;;14.69;77.14
6208;BME280;3137;51.550;7.060;2023-09-19T05:55:06;100723.00;;;14.63;77.31
6208;BME280;3137;51.550;7.060;2023-09-19T05:57:34;100734.25;;;14.67;77.19
6208;BME280;3137;51.550;7.060;2023-09-19T06:00:01;100731.88;;;14.72;77.08
6208;BME280;3137;51.550;7.060;2023-09-19T06:02:37;100729.28;;;14.78;76.67
6208;BME280;3137;51.550;7.060;2023-09-19T06:05:05;100728.66;;;14.76;76.96
6208;BME280;3137;51.550;7.060;2023-09-19T06:07:37;100727.00;;;14.90;76.50
6208;BME280;3137;51.550;7.060;2023-09-19T06:10:04;100725.22;;;14.82;75.86
6208;BME280;3137;51.550;7.060;2023-09-19T06:12:41;100723.84;;;14.86;76.16
6208;BME280;3137;51.550;7.060;2023-09-19T06:15:11;100715.72;;;14.94;76.06
6208;BME280;3137;51.550;7.060;2023-09-19T06:17:49;100713.56;;;14.90;75.83
6208;BME280;3137;51.550;7.060;2023-09-19T06:20:17;100713.31;;;14.99;75.94
6208;BME280;3137;51.550;7.060;2023-09-19T06:22:45;100723.91;;;15.01;76.04
6208;BME280;3137;51.550;7.060;2023-09-19T06:25:13;100725.41;;;15.03;75.43
6208;BME280;3137;51.550;7.060;2023-09-19T06:27:46;100728.09;;;15.03;75.11
6208;BME280;3137;51.550;7.060;2023-09-19T06:30:13;100720.50;;;15.07;74.91
6208;BME280;3137;51.550;7.060;2023-09-19T06:32:41;100718.09;;;15.12;75.20
6208;BME280;3137;51.550;7.060;2023-09-19T06:35:15;100721.16;;;15.09;74.54
6208;BME280;3137;51.550;7.060;2023-09-19T06:37:43;100718.78;;;15.14;74.39
6208;BME280;3137;51.550;7.060;2023-09-19T06:40:11;100728.69;;;15.14;74.47
6208;BME280;3137;51.550;7.060;2023-09-19T06:42:42;100731.16;;;15.23;74.34
6208;BME280;3137;51.550;7.060;2023-09-19T06:45:09;100728.31;;;15.17;74.70
6208;BME280;3137;51.550;7.060;2023-09-19T06:47:37;100732.22;;;15.14;74.34
6208;BME280;3137;51.550;7.060;2023-09-19T06:50:05;100736.88;;;15.20;74.60
6208;BME280;3137;51.550;7.060;2023-09-19T06:52:32;100743.09;;;15.21;74.12
6208;BME280;3137;51.550;7.060;2023-09-19T06:55:02;100738.00;;;15.26;74.43
6208;BME280;3137;51.550;7.060;2023-09-19T06:57:29;100745.38;;;15.32;74.92
6208;BME280;3137;51.550;7.060;2023-09-19T06:59:57;100741.19;;;15.29;74.78
6208;BME280;3137;51.550;7.060;2023-09-19T07:02:23;100744.72;;;15.30;74.39
6208;BME280;3137;51.550;7.060;2023-09-19T07:04:50;100737.00;;;15.27;74.80
6208;BME280;3137;51.550;7.060;2023-09-19T07:07:16;100747.88;;;15.33;73.94
6208;BME280;3137;51.550;7.060;2023-09-19T07:09:43;100755.97;;;15.33;74.13
6208;BME280;3137;51.550;7.060;2023-09-19T07:12:10;100749.38;;;15.36;74.54
6208;BME280;3137;51.550;7.060;2023-09-19T07:14:38;100750.03;;;15.38;74.91
6208;BME280;3137;51.550;7.060;2023-09-19T07:17:04;100751.72;;;15.39;74.38
6208;BME280;3137;51.550;7.060;2023-09-19T07:19:31;100763.66;;;15.36;74.44
6208;BME280;3137;51.550;7.060;2023-09-19T07:21:58;100758.69;;;15.48;74.81
6208;BME280;3137;51.550;7.060;2023-09-19T07:24:25;100755.72;;;15.43;75.19
6208;BME280;3137;51.550;7.060;2023-09-19T07:26:53;100760.94;;;15.44;75.39
6208;BME280;3137;51.550;7.060;2023-09-19T07:29:20;100759.03;;;15.45;75.50
6208;BME280;3137;51.550;7.060;2023-09-19T07:31:46;100757.66;;;15.49;74.93
6208;BME280;3137;51.550;7.060;2023-09-19T07:34:13;100762.25;;;15.48;74.69
6208;BME280;3137;51.550;7.060;2023-09-19T07:36:40;100756.34;;;15.53;74.55
6208;BME280;3137;51.550;7.060;2023-09-19T07:39:08;100757.16;;;15.53;75.65
6208;BME280;3137;51.550;7.060;2023-09-19T07:41:48;100764.88;;;15.57;74.46
6208;BME280;3137;51.550;7.060;2023-09-19T07:44:16;100760.50;;;15.56;75.52
6208;BME280;3137;51.550;7.060;2023-09-19T07:46:43;100764.22;;;15.54;75.52
6208;BME280;3137;51.550;7.060;2023-09-19T07:49:10;100766.84;;;15.63;75.38
6208;BME280;3137;51.550;7.060;2023-09-19T07:51:37;100758.09;;;15.61;75.99
6208;BME280;3137;51.550;7.060;2023-09-19T07:54:05;100769.66;;;15.69;75.48
6208;BME280;3137;51.550;7.060;2023-09-19T07:56:31;100766.88;;;15.77;76.05
6208;BME280;3137;51.550;7.060;2023-09-19T07:58:58;100774.88;;;15.85;74.85
6208;BME280;3137;51.550;7.060;2023-09-19T08:01:25;100770.66;;;15.83;75.53
6208;BME280;3137;51.550;7.060;2023-09-19T08:03:53;100780.09;;;15.87;74.53
6208;BME280;3137;51.550;7.060;2023-09-19T08:06:20;100777.44;;;15.79;74.63
6208;BME280;3137;51.550;7.060;2023-09-19T08:08:46;100778.13;;;15.81;74.94
6208;BME280;3137;51.550;7.060;2023-09-19T08:11:13;100790.19;;;15.85;74.51
6208;BME280;3137;51.550;7.060;2023-09-19T08:13:47;100785.94;;;15.90;74.30
6208;BME280;3137;51.550;7.060;2023-09-19T08:16:16;100794.66;;;15.92;73.83
6208;BME280;3137;51.550;7.060;2023-09-19T08:18:47;100797.91;;;15.88;74.43
6208;BME280;3137;51.550;7.060;2023-09-19T08:21:14;100797.38;;;15.92;74.72
6208;BME280;3137;51.550;7.060;2023-09-19T08:23:43;100800.81;;;15.86;75.07
6208;BME280;3137;51.550;7.060;2023-09-19T08:26:11;100799.03;;;15.93;74.69
6208;BME280;3137;51.550;7.060;2023-09-19T08:28:37;100810.28;;;15.97;75.19
6208;BME280;3137;51.550;7.060;2023-09-19T08:31:08;100794.88;;;16.06;74.11
6208;BME280;3137;51.550;7.060;2023-09-19T08:33:36;100796.72;;;16.05;74.14
6208;BME280;3137;51.550;7.060;2023-09-19T08:36:06;100802.22;;;15.97;73.73
6208;BME280;3137;51.550;7.060;2023-09-19T08:38:35;100797.75;;;16.04;74.21
6208;BME280;3137;51.550;7.060;2023-09-19T08:41:06;100804.00;;;16.19;75.14
6208;BME280;3137;51.550;7.060;2023-09-19T08:43:34;100799.50;;;16.26;74.97
6208;BME280;3137;51.550;7.060;2023-09-19T08:46:10;100794.97;;;16.41;73.12
6208;BME280;3137;51.550;7.060;2023-09-19T08:48:41;100808.34;;;16.50;72.76
6208;BME280;3137;51.550;7.060;2023-09-19T08:51:18;100803.31;;;16.46;73.45
6208;BME280;3137;51.550;7.060;2023-09-19T08:54:00;100805.25;;;16.53;73.13
6208;BME280;3137;51.550;7.060;2023-09-19T08:56:31;100807.97;;;16.53;72.02
6208;BME280;3137;51.550;7.060;2023-09-19T08:59:02;100800.63;;;16.61;73.35
6208;BME280;3137;51.550;7.060;2023-09-19T09:01:31;100797.19;;;16.67;73.94
6208;BME280;3137;51.550;7.060;2023-09-19T09:03:59;100810.13;;;16.72;71.77
6208;BME280;3137;51.550;7.060;2023-09-19T09:06:26;100803.41;;;16.68;72.52
6208;BME280;3137;51.550;7.060;2023-09-19T09:08:55;100797.81;;;16.69;71.46
6208;BME280;3137;51.550;7.060;2023-09-19T09:11:22;100807.44;;;16.72;71.59
6208;BME280;3137;51.550;7.060;2023-09-19T09:13:51;100799.38;;;16.78;71.17
6208;BME280;3137;51.550;7.060;2023-09-19T09:16:17;100789.59;;;16.77;71.03
6208;BME280;3137;51.550;7.060;2023-09-19T09:18:46;100789.81;;;16.76;70.62
6208;BME280;3137;51.550;7.060;2023-09-19T09:21:12;100790.06;;;16.81;70.68
6208;BME280;3137;51.550;7.060;2023-09-19T09:23:40;100791.88;;;16.95;69.37
6208;BME280;3137;51.550;7.060;2023-09-19T09:26:07;100790.09;;;17.02;69.54
6208;BME280;3137;51.550;7.060;2023-09-19T09:28:36;100787.47;;;17.09;70.81
6208;BME280;3137;51.550;7.060;2023-09-19T09:31:25;100793.19;;;17.20;69.80
6208;BME280;3137;51.550;7.060;2023-09-19T09:33:53;100780.91;;;17.18;68.31
6208;BME280;3137;51.550;7.060;2023-09-19T09:36:38;100791.50;;;17.19;67.53
6208;BME280;3137;51.550;7.060;2023-09-19T09:39:07;100782.56;;;17.19;67.69
6208;BME280;3137;51.550;7.060;2023-09-19T09:41:44;100784.81;;;17.15;67.27
6208;BME280;3137;51.550;7.060;2023-09-19T09:44:14;100789.19;;;17.16;67.62
6208;BME280;3137;51.550;7.060;2023-09-19T09:46:45;100787.78;;;17.20;68.47
6208;BME280;3137;51.550;7.060;2023-09-19T09:49:25;100790.03;;;17.17;68.20
6208;BME280;3137;51.550;7.060;2023-09-19T09:52:07;100787.03;;;17.26;67.37
6208;BME280;3137;51.550;7.060;2023-09-19T09:55:02;100777.06;;;17.27;66.48
6208;BME280;3137;51.550;7.060;2023-09-19T09:57:34;100787.72;;;17.35;67.41
6208;BME280;3137;51.550;7.060;2023-09-19T10:00:01;100791.00;;;17.52;67.13
6208;BME280;3137;51.550;7.060;2023-09-19T10:02:37;100793.84;;;17.44;66.71
6208;BME280;3137;51.550;7.060;2023-09-19T10:05:17;100787.88;;;17.55;67.92
6208;BME280;3137;51.550;7.060;2023-09-19T10:07:54;100787.88;;;17.55;67.44
6208;BME280;3137;51.550;7.060;2023-09-19T10:10:36;100788.88;;;17.47;66.15
6208;BME280;3137;51.550;7.060;2023-09-19T10:13:06;100790.72;;;17.47;65.98
6208;BME280;3137;51.550;7.060;2023-09-19T10:15:34;100790.16;;;17.51;66.14
6208;BME280;3137;51.550;7.060;2023-09-19T10:18:06;100776.97;;;17.63;65.88
6208;BME280;3137;51.550;7.060;2023-09-19T10:20:36;100768.66;;;17.64;64.80
6208;BME280;3137;51.550;7.060;2023-09-19T10:23:09;100767.59;;;17.65;67.57
6208;BME280;3137;51.550;7.060;2023-09-19T10:25:42;100770.13;;;17.67;65.29
6208;BME280;3137;51.550;7.060;2023-09-19T10:28:10;100766.88;;;17.78;65.63
6208;BME280;3137;51.550;7.060;2023-09-19T10:30:47;100770.25;;;17.87;65.95
6208;BME280;3137;51.550;7.060;2023-09-19T10:33:16;100760.25;;;17.80;64.90
6208;BME280;3137;51.550;7.060;2023-09-19T10:35:45;100766.09;;;17.84;65.87
6208;BME280;3137;51.550;7.060;2023-09-19T10:38:18;100766.09;;;17.84;64.71
6208;BME280;3137;51.550;7.060;2023-09-19T10:40:52;100765.31;;;17.90;64.51
6208;BME280;3137;51.550;7.060;2023-09-19T10:43:20;100757.63;;;17.94;63.11
6208;BME280;3137;51.550;7.060;2023-09-19T10:45:49;100764.25;;;17.91;63.98
6208;BME280;3137;51.550;7.060;2023-09-19T10:48:19;100768.91;;;18.04;62.05
6208;BME280;3137;51.550;7.060;2023-09-19T10:53:27;100750.03;;;18.10;63.62
6208;BME280;3137;51.550;7.060;2023-09-19T10:55:57;100752.91;;;18.09;62.30
6208;BME280;3137;51.550;7.060;2023-09-19T10:58:34;100745.06;;;18.20;62.38
6208;BME280;3137;51.550;7.060;2023-09-19T11:01:05;100753.47;;;18.32;61.57
6208;BME280;3137;51.550;7.060;2023-09-19T11:03:33;100751.84;;;18.44;61.19
6208;BME280;3137;51.550;7.060;2023-09-19T11:11:41;100752.00;;;18.30;61.06
6208;BME280;3137;51.550;7.060;2023-09-19T11:30:43;100747.59;;;18.69;61.27
6208;BME280;3137;51.550;7.060;2023-09-19T11:33:29;100753.03;;;18.76;60.85
6208;BME280;3137;51.550;7.060;2023-09-19T11:36:16;100753.63;;;18.65;60.48
6208;BME280;3137;51.550;7.060;2023-09-19T11:43:49;100746.16;;;18.74;60.95
6208;BME280;3137;51.550;7.060;2023-09-19T11:46:21;100749.91;;;18.73;60.31
6208;BME280;3137;51.550;7.060;2023-09-19T11:48:48;100742.41;;;18.81;60.32
6208;BME280;3137;51.550;7.060;2023-09-19T11:51:23;100748.47;;;18.83;60.44
6208;BME280;3137;51.550;7.060;2023-09-19T11:53:55;100748.03;;;18.73;59.21
6208;BME280;3137;51.550;7.060;2023-09-19T11:56:27;100746.97;;;18.67;60.32
6208;BME280;3137;51.550;7.060;2023-09-19T11:58:55;100746.31;;;18.59;60.39
6208;BME280;3137;51.550;7.060;2023-09-19T12:01:27;100740.09;;;18.65;58.63
6208;BME280;3137;51.550;7.060;2023-09-19T12:03:57;100735.88;;;18.56;60.23
6208;BME280;3137;51.550;7.060;2023-09-19T12:06:26;100745.09;;;18.61;60.83
6208;BME280;3137;51.550;7.060;2023-09-19T12:08:53;100732.41;;;18.75;60.99
6208;BME280;3137;51.550;7.060;2023-09-19T12:11:21;100730.50;;;18.69;60.80
6208;BME280;3137;51.550;7.060;2023-09-19T12:13:49;100723.88;;;18.78;60.90
6208;BME280;3137;51.550;7.060;2023-09-19T12:16:18;100725.13;;;18.89;60.36
6208;BME280;3137;51.550;7.060;2023-09-19T12:18:45;100731.81;;;18.93;60.37
6208;BME280;3137;51.550;7.060;2023-09-19T12:21:23;100732.44;;;18.95;60.37
6208;BME280;3137;51.550;7.060;2023-09-19T12:24:07;100730.56;;;19.02;60.22
6208;BME280;3137;51.550;7.060;2023-09-19T12:26:41;100731.84;;;18.99;57.55
6208;BME280;3137;51.550;7.060;2023-09-19T12:29:12;100725.41;;;19.13;57.27
6208;BME280;3137;51.550;7.060;2023-09-19T12:31:56;100705.56;;;19.33;55.69
6208;BME280;3137;51.550;7.060;2023-09-19T12:34:30;100709.56;;;19.30;55.80
6208;BME280;3137;51.550;7.060;2023-09-19T12:37:13;100721.84;;;19.26;55.32
6208;BME280;3137;51.550;7.060;2023-09-19T12:39:51;100714.75;;;19.25;55.47
6208;BME280;3137;51.550;7.060;2023-09-19T12:42:24;100703.69;;;19.40;55.58
6208;BME280;3137;51.550;7.060;2023-09-19T12:44:51;100706.66;;;19.45;55.34
6208;BME280;3137;51.550;7.060;2023-09-19T12:47:28;100693.91;;;19.39;54.88
6208;BME280;3137;51.550;7.060;2023-09-19T12:50:15;100692.66;;;19.48;56.18
6208;BME280;3137;51.550;7.060;2023-09-19T12:52:51;100690.38;;;19.51;56.03
6208;BME280;3137;51.550;7.060;2023-09-19T12:55:27;100696.00;;;19.50;56.76
6208;BME280;3137;51.550;7.060;2023-09-19T12:58:15;100697.66;;;19.64;53.99
6208;BME280;3137;51.550;7.060;2023-09-19T13:00:43;100703.91;;;19.71;56.13
6208;BME280;3137;51.550;7.060;2023-09-19T13:05:57;100694.31;;;19.62;54.98
6208;BME280;3137;51.550;7.060;2023-09-19T13:08:35;100697.25;;;19.54;54.81
6208;BME280;3137;51.550;7.060;2023-09-19T13:13:45;100690.78;;;19.48;54.55
6208;BME280;3137;51.550;7.060;2023-09-19T13:16:16;100701.00;;;19.53;53.89
6208;BME280;3137;51.550;7.060;2023-09-19T13:18:52;100712.47;;;19.61;54.13
6208;BME280;3137;51.550;7.060;2023-09-19T13:21:32;100688.69;;;19.64;55.27
6208;BME280;3137;51.550;7.060;2023-09-19T13:24:23;100700.16;;;19.66;53.45
6208;BME280;3137;51.550;7.060;2023-09-19T13:26:54;100690.13;;;19.73;54.27
6208;BME280;3137;51.550;7.060;2023-09-19T13:29:21;100691.19;;;19.72;53.86
6208;BME280;3137;51.550;7.060;2023-09-19T13:31:48;100678.03;;;19.69;53.24
6208;BME280;3137;51.550;7.060;2023-09-19T13:34:16;100681.16;;;19.72;53.59
6208;BME280;3137;51.550;7.060;2023-09-19T13:36:43;100709.13;;;19.73;54.28
6208;BME280;3137;51.550;7.060;2023-09-19T13:39:10;100687.00;;;19.76;53.39
6208;BME280;3137;51.550;7.060;2023-09-19T13:41:39;100684.72;;;19.73;53.23
6208;BME280;3137;51.550;7.060;2023-09-19T13:44:05;100689.13;;;19.54;54.66
6208;BME280;3137;51.550;7.060;2023-09-19T13:46:32;100699.34;;;19.58;55.10
6208;BME280;3137;51.550;7.060;2023-09-19T13:49:01;100678.28;;;19.54;55.04
6208;BME280;3137;51.550;7.060;2023-09-19T13:51:32;100693.47;;;19.42;54.98
6208;BME280;3137;51.550;7.060;2023-09-19T13:53:59;100679.75;;;19.43;55.44
6208;BME280;3137;51.550;7.060;2023-09-19T13:56:28;100688.50;;;19.39;55.16
6208;BME280;3137;51.550;7.060;2023-09-19T13:58:54;100703.31;;;19.43;56.64
6208;BME280;3137;51.550;7.060;2023-09-19T14:01:21;100697.84;;;19.36;55.97
6208;BME280;3137;51.550;7.060;2023-09-19T14:03:47;100692.88;;;19.33;55.36
6208;BME280;3137;51.550;7.060;2023-09-19T14:06:17;100693.47;;;19.35;56.31